Time;durP1;ratioP1;P1;durP2;ratioP2;P2;SDS_P1;SDS_P2;PMS_P1;PMS_P2;Temp;Humidity;BMP_temperature;BMP_pressure;BME280_temperature;BME280_humidity;BME280_pressure;Samples;Min_cycle;Max_cycle;Signal;HPM_P1;HPM_P2
2022/08/25 00:06:12;;;;;;;6.60;5.50;;;22.50;76.70;;;;;;21078103;28;20238;-69
2022/08/25 00:16:15;;;;;;;8.37;5.80;;;22.40;77.90;;;;;;21077994;28;20733;-70
2022/08/25 00:26:18;;;;;;;7.03;5.73;;;22.20;78.60;;;;;;21064891;28;20277;-70
2022/08/25 00:36:20;;;;;;;7.37;5.77;;;22.10;79.50;;;;;;21093281;28;20617;-69
2022/08/25 00:46:27;;;;;;;7.17;5.67;;;22.00;80.30;;;;;;21092194;28;20238;-69
2022/08/25 00:56:30;;;;;;;9.93;6.77;;;21.80;80.70;;;;;;21090766;28;21480;-70
2022/08/25 01:06:37;;;;;;;8.73;6.17;;;21.70;81.40;;;;;;21072047;28;20590;-71
2022/08/25 01:16:41;;;;;;;8.97;6.30;;;21.60;81.90;;;;;;21090250;28;20209;-70
2022/08/25 01:26:43;;;;;;;10.03;6.70;;;21.40;82.40;;;;;;21089089;28;20238;-69
2022/08/25 01:36:44;;;;;;;9.07;6.40;;;21.30;83.10;;;;;;21087476;28;20209;-68
2022/08/25 01:46:46;;;;;;;10.03;6.70;;;21.20;83.90;;;;;;21070135;28;20282;-70
2022/08/25 01:56:48;;;;;;;8.23;7.00;;;21.20;84.80;;;;;;21086707;28;20205;-71
2022/08/25 02:06:50;;;;;;;11.33;7.47;;;21.10;85.20;;;;;;21086020;28;20246;-68
2022/08/25 02:16:52;;;;;;;14.30;7.53;;;20.90;85.60;;;;;;21085472;28;20208;-68
2022/08/25 02:26:54;;;;;;;10.27;7.70;;;20.80;86.00;;;;;;21084221;28;20657;-71
2022/08/25 02:36:56;;;;;;;9.70;6.77;;;20.60;86.60;;;;;;21083591;28;20246;-69
2022/08/25 02:46:57;;;;;;;11.97;7.87;;;20.50;87.20;;;;;;21082376;28;20401;-69
2022/08/25 02:56:59;;;;;;;12.10;7.73;;;20.50;87.70;;;;;;21080217;28;20633;-70
2022/08/25 03:07:02;;;;;;;13.47;7.87;;;20.50;88.10;;;;;;21080288;28;20236;-68
2022/08/25 03:17:05;;;;;;;12.20;7.43;;;20.40;88.50;;;;;;21080890;28;20254;-68
2022/08/25 03:27:09;;;;;;;16.50;9.03;;;20.30;89.20;;;;;;21079497;28;20241;-71
2022/08/25 03:37:12;;;;;;;11.60;8.23;;;20.20;89.40;;;;;;21079406;28;20241;-70
2022/08/25 03:47:14;;;;;;;15.47;8.03;;;20.10;90.00;;;;;;21079277;28;20230;-68
2022/08/25 03:57:16;;;;;;;15.23;8.87;;;20.00;90.20;;;;;;21078424;28;20208;-69
2022/08/25 04:07:17;;;;;;;17.00;8.37;;;19.90;90.40;;;;;;21094327;28;20703;-68
2022/08/25 04:17:19;;;;;;;38.23;11.37;;;19.80;90.70;;;;;;21095141;28;20213;-70
2022/08/25 04:27:21;;;;;;;13.20;8.50;;;19.80;90.90;;;;;;21093681;28;20233;-70
2022/08/25 04:37:22;;;;;;;9.73;7.77;;;19.70;91.40;;;;;;21092945;28;20204;-68
2022/08/25 04:47:25;;;;;;;14.80;8.63;;;19.70;91.40;;;;;;21091198;28;20240;-68
2022/08/25 04:57:29;;;;;;;20.00;8.13;;;19.70;91.50;;;;;;21173202;28;20210;-69
2022/08/25 05:07:30;;;;;;;20.47;9.23;;;19.70;91.50;;;;;;21173727;28;20246;-70
2022/08/25 05:17:32;;;;;;;16.00;9.30;;;19.60;91.70;;;;;;21174527;28;20202;-73
2022/08/25 05:27:34;;;;;;;16.27;8.50;;;19.60;92.00;;;;;;21172362;28;20243;-72
2022/08/25 05:37:36;;;;;;;25.47;9.50;;;19.70;92.10;;;;;;21172475;28;20212;-71
2022/08/25 05:47:40;;;;;;;27.73;10.17;;;19.80;92.30;;;;;;21172049;28;20692;-71
2022/08/25 05:57:42;;;;;;;33.37;10.80;;;20.00;92.30;;;;;;21170476;28;20210;-71
2022/08/25 06:07:45;;;;;;;30.10;10.67;;;20.10;92.10;;;;;;21169201;28;20240;-70
2022/08/25 06:17:48;;;;;;;22.67;10.73;;;20.10;92.20;;;;;;21168571;28;20212;-71
2022/08/25 06:27:50;;;;;;;26.43;11.93;;;20.30;92.40;;;;;;21167002;28;20245;-69
2022/08/25 06:37:52;;;;;;;20.10;11.20;;;20.50;92.30;;;;;;21165929;28;20205;-70
2022/08/25 06:47:58;;;;;;;20.73;11.07;;;20.70;92.40;;;;;;21166028;28;20271;-69
2022/08/25 06:58:00;;;;;;;17.77;11.10;;;21.00;92.40;;;;;;21083497;28;20199;-71
2022/08/25 07:08:02;;;;;;;17.17;12.23;;;21.20;92.20;;;;;;21080370;28;20272;-73
2022/08/25 07:18:04;;;;;;;16.27;11.63;;;21.50;92.10;;;;;;21080557;28;20208;-72
2022/08/25 07:28:06;;;;;;;19.43;10.77;;;21.80;92.00;;;;;;21079262;28;20295;-72
2022/08/25 07:38:10;;;;;;;14.63;10.73;;;22.10;91.80;;;;;;21078130;28;20214;-68
2022/08/25 07:48:18;;;;;;;12.97;10.37;;;22.40;91.60;;;;;;21077876;28;20241;-75
2022/08/25 07:58:20;;;;;;;13.20;10.93;;;22.80;91.60;;;;;;21076433;28;20679;-70
2022/08/25 08:08:22;;;;;;;12.97;9.63;;;23.10;91.50;;;;;;21075405;28;20264;-72
2022/08/25 08:18:24;;;;;;;11.90;9.50;;;23.30;91.30;;;;;;21076099;28;20622;-70
2022/08/25 08:28:26;;;;;;;17.50;9.20;;;23.60;91.10;;;;;;21075462;28;20238;-68
2022/08/25 08:38:28;;;;;;;12.40;8.67;;;24.00;90.80;;;;;;21074885;28;20729;-70
2022/08/25 08:48:50;;;;;;;11.63;9.07;;;24.20;90.40;;;;;;21082212;28;20234;-72
2022/08/25 08:58:56;;;;;;;13.33;9.30;;;24.50;90.00;;;;;;21086125;28;20206;-71
2022/08/25 09:09:03;;;;;;;12.87;8.90;;;24.70;89.00;;;;;;21088278;28;20230;-68
2022/08/25 09:19:37;;;;;;;11.03;7.17;;;24.90;87.70;;;;;;21088745;28;20203;-70
2022/08/25 09:30:03;;;;;;;10.57;7.80;;;25.20;86.30;;;;;;21087642;28;20242;-70
2022/08/25 09:40:06;;;;;;;9.37;6.93;;;25.40;84.60;;;;;;21086866;28;20207;-70
2022/08/25 09:50:15;;;;;;;10.47;6.27;;;25.60;83.40;;;;;;21085592;28;20230;-70
2022/08/25 10:00:26;;;;;;;10.70;6.63;;;25.90;81.70;;;;;;21084819;28;20210;-72
2022/08/25 10:10:35;;;;;;;10.47;6.10;;;26.10;80.30;;;;;;21084364;28;20230;-68
2022/08/25 10:20:42;;;;;;;7.90;6.43;;;26.00;78.70;;;;;;21083184;28;20213;-70
2022/08/25 10:31:13;;;;;;;9.13;6.40;;;25.90;77.70;;;;;;21083344;28;20671;-68
2022/08/25 10:41:29;;;;;;;7.30;6.50;;;25.90;77.00;;;;;;21081915;28;20202;-69
2022/08/25 10:51:53;;;;;;;7.67;6.37;;;25.90;76.50;;;;;;21079499;28;20255;-68
2022/08/25 11:02:10;;;;;;;6.60;5.10;;;25.90;75.60;;;;;;21078148;28;20233;-70
2022/08/25 11:12:28;;;;;;;4.90;4.40;;;25.90;74.10;;;;;;21078935;28;20231;-69
2022/08/25 11:22:38;;;;;;;9.27;4.70;;;25.90;72.50;;;;;;21078481;28;20206;-68
2022/08/25 11:32:46;;;;;;;7.43;5.20;;;26.10;71.30;;;;;;21078206;28;20242;-68
2022/08/25 11:43:04;;;;;;;6.57;4.70;;;26.50;70.10;;;;;;21075212;28;20217;-67
2022/08/25 11:53:11;;;;;;;6.47;5.07;;;27.00;68.60;;;;;;21076824;28;20242;-72
2022/08/25 12:03:31;;;;;;;7.07;4.57;;;27.40;66.90;;;;;;21084962;28;20213;-69
2022/08/25 12:13:41;;;;;;;5.90;4.70;;;27.70;65.20;;;;;;21102942;28;20717;-72
2022/08/25 12:24:04;;;;;;;6.00;4.47;;;28.00;63.90;;;;;;21116096;28;20631;-72
2022/08/25 12:34:35;;;;;;;7.07;4.00;;;28.30;62.70;;;;;;21155061;28;20272;-67
2022/08/25 12:44:41;;;;;;;5.65;3.88;;;28.60;61.00;;;;;;21172572;28;20225;-68
2022/08/25 12:54:57;;;;;;;6.43;4.47;;;28.80;59.40;;;;;;21174894;28;20707;-66
2022/08/25 13:05:16;;;;;;;7.63;4.57;;;29.10;58.70;;;;;;21174197;28;20245;-67
2022/08/25 13:15:57;;;;;;;6.45;4.47;;;29.00;58.30;;;;;;21173609;28;20662;-67
2022/08/25 13:25:58;;;;;;;7.03;4.63;;;28.80;58.30;;;;;;21158047;28;20742;-69
2022/08/25 13:46:21;;;;;;;7.33;4.60;;;28.60;57.90;;;;;;21171078;28;20694;-67
2022/08/25 13:56:33;;;;;;;9.70;5.15;;;28.60;57.50;;;;;;21169780;28;20206;-67
2022/08/25 14:06:41;;;;;;;6.30;4.63;;;28.60;57.50;;;;;;21168912;28;20323;-68
2022/08/25 14:16:50;;;;;;;9.27;5.25;;;28.90;57.00;;;;;;21168618;28;20206;-67
2022/08/25 14:26:54;;;;;;;4.72;4.15;;;29.50;56.80;;;;;;21167115;28;20324;-66
2022/08/25 14:36:58;;;;;;;5.47;4.05;;;32.50;52.10;;;;;;21080477;28;20195;-68
2022/08/25 14:47:01;;;;;;;6.18;3.53;;;31.10;52.20;;;;;;21062132;28;20279;-68
2022/08/25 14:57:05;;;;;;;6.25;3.78;;;30.00;52.30;;;;;;21080504;28;20247;-70
2022/08/25 15:09:06;;;;;;;4.55;3.60;;;29.70;52.50;;;;;;21080370;28;20318;-69
2022/08/25 15:17:33;;;;;;;9.10;4.10;;;29.60;52.20;;;;;;21080418;28;20659;-70
2022/08/25 15:27:35;;;;;;;7.57;5.13;;;29.70;52.10;;;;;;21078795;28;20238;-72
2022/08/25 15:37:38;;;;;;;7.90;5.28;;;29.40;53.10;;;;;;21078792;28;20203;-69
2022/08/25 15:47:41;;;;;;;5.82;4.70;;;29.30;53.90;;;;;;21078467;28;20591;-69
2022/08/25 15:57:43;;;;;;;7.13;5.35;;;29.10;54.50;;;;;;21076796;28;20252;-67
2022/08/25 16:07:45;;;;;;;12.20;6.10;;;28.80;55.10;;;;;;21077174;28;20270;-70
2022/08/25 16:17:52;;;;;;;12.27;6.90;;;28.60;56.60;;;;;;21077612;28;20211;-69
2022/08/25 16:27:55;;;;;;;7.80;6.90;;;28.40;57.50;;;;;;21075800;28;20239;-69
2022/08/25 16:37:58;;;;;;;8.60;5.87;;;28.30;57.90;;;;;;21075843;28;20699;-68
2022/08/25 16:48:04;;;;;;;7.80;5.63;;;28.30;57.70;;;;;;21075422;28;20230;-71
2022/08/25 16:58:08;;;;;;;7.10;5.53;;;28.20;57.50;;;;;;21075934;28;20683;-70
2022/08/25 17:08:29;;;;;;;8.07;5.70;;;28.20;57.10;;;;;;21080605;28;20321;-70
2022/08/25 17:18:31;;;;;;;12.10;8.80;;;28.10;56.90;;;;;;21089868;28;20207;-70
2022/08/25 17:28:33;;;;;;;9.40;6.23;;;28.00;57.30;;;;;;21089066;28;20288;-67
2022/08/25 17:38:35;;;;;;;9.80;6.20;;;28.00;57.90;;;;;;21087984;28;20659;-70
2022/08/25 17:48:38;;;;;;;9.30;6.00;;;27.90;58.30;;;;;;21087389;28;20714;-74
2022/08/25 17:58:45;;;;;;;11.17;6.70;;;27.90;58.60;;;;;;21086925;28;20210;-76
2022/08/25 18:08:48;;;;;;;13.57;7.23;;;27.80;58.90;;;;;;21086025;28;20235;-70
2022/08/25 18:18:54;;;;;;;9.73;5.70;;;27.60;59.40;;;;;;21084694;28;20199;-71
2022/08/25 18:28:57;;;;;;;8.03;5.73;;;27.50;59.90;;;;;;21084277;28;20242;-69
2022/08/25 18:49:20;;;;;;;7.07;5.57;;;27.10;61.10;;;;;;21082661;28;20238;-69
2022/08/25 18:59:27;;;;;;;7.33;5.80;;;27.00;61.50;;;;;;21083482;28;20202;-71
2022/08/25 19:09:29;;;;;;;9.03;7.00;;;26.80;61.50;;;;;;21131553;28;20230;-67
2022/08/25 19:19:31;;;;;;;9.00;6.10;;;26.70;61.90;;;;;;21140709;28;20228;-74
2022/08/25 19:29:32;;;;;;;12.30;8.13;;;26.60;62.20;;;;;;21079914;28;20246;-72
2022/08/25 19:39:36;;;;;;;10.67;6.63;;;26.40;64.60;;;;;;21079342;28;20553;-72
2022/08/25 19:49:40;;;;;;;10.53;6.60;;;26.20;64.80;;;;;;21078551;28;20234;-73
2022/08/25 19:59:44;;;;;;;21.57;7.10;;;26.10;65.70;;;;;;21078315;28;20206;-68
2022/08/25 20:09:48;;;;;;;14.80;6.50;;;25.90;66.50;;;;;;21077910;28;20234;-70
2022/08/25 20:19:52;;;;;;;9.20;5.90;;;25.80;66.80;;;;;;21076703;28;20206;-68
2022/08/25 20:29:54;;;;;;;10.00;6.60;;;25.60;67.60;;;;;;21076527;28;20241;-68
2022/08/25 20:39:57;;;;;;;10.23;6.27;;;25.50;69.30;;;;;;21076683;28;20202;-67
2022/08/25 20:50:00;;;;;;;9.87;6.43;;;25.40;68.90;;;;;;21091137;28;20303;-67
2022/08/25 21:00:08;;;;;;;17.20;7.13;;;25.20;69.80;;;;;;21091663;28;20256;-68
2022/08/25 21:10:11;;;;;;;13.97;6.77;;;25.10;70.30;;;;;;21090697;28;20690;-70
2022/08/25 21:20:16;;;;;;;14.80;6.87;;;24.90;70.50;;;;;;21089945;28;20294;-67
2022/08/25 21:30:17;;;;;;;10.10;7.00;;;24.90;70.90;;;;;;21071211;28;20622;-72
2022/08/25 21:40:20;;;;;;;15.53;6.43;;;24.80;71.30;;;;;;21088315;28;20211;-71
2022/08/25 21:50:22;;;;;;;9.50;6.27;;;24.60;71.80;;;;;;21115238;28;20241;-66
2022/08/25 22:00:26;;;;;;;8.67;6.27;;;24.40;72.60;;;;;;21169193;28;20202;-67
2022/08/25 22:10:27;;;;;;;12.80;6.70;;;24.20;73.10;;;;;;21170178;28;20237;-70
2022/08/25 22:20:29;;;;;;;14.23;6.30;;;24.10;73.80;;;;;;21149251;28;20213;-67
2022/08/25 22:30:33;;;;;;;11.40;7.00;;;24.00;75.30;;;;;;21165039;28;20241;-72
2022/08/25 22:40:36;;;;;;;8.23;6.50;;;23.90;75.20;;;;;;21168074;28;20209;-70
2022/08/25 22:50:38;;;;;;;13.27;7.93;;;23.70;75.90;;;;;;21167048;28;20238;-69
2022/08/25 23:00:41;;;;;;;12.63;7.20;;;23.60;76.40;;;;;;21166601;28;20278;-67
2022/08/25 23:10:51;;;;;;;9.47;7.33;;;23.50;77.00;;;;;;21165118;28;20237;-68
2022/08/25 23:31:16;;;;;;;8.80;6.67;;;23.40;78.00;;;;;;21164455;28;20273;-65
2022/08/25 23:41:20;;;;;;;10.40;7.13;;;23.20;78.60;;;;;;21163819;28;20233;-66
2022/08/25 23:51:28;;;;;;;9.03;7.30;;;23.20;79.30;;;;;;21163145;28;20232;-63
